sensor_id;sensor_type;location;lat;lon;timestamp;P1;durP1;ratioP1;P2;durP2;ratioP2
42590;SDS011;28218;53.342;-6.216;2022-12-18T00:01:22;23.83;;;12.40;;
42590;SDS011;28218;53.342;-6.216;2022-12-18T00:03:52;26.58;;;13.52;;
42590;SDS011;28218;53.342;-6.216;2022-12-18T00:06:23;32.03;;;13.63;;
42590;SDS011;28218;53.342;-6.216;2022-12-18T00:08:52;25.48;;;13.30;;
42590;SDS011;28218;53.342;-6.216;2022-12-18T00:11:21;23.13;;;13.45;;
42590;SDS011;28218;53.342;-6.216;2022-12-18T00:13:52;32.80;;;15.60;;
42590;SDS011;28218;53.342;-6.216;2022-12-18T00:16:23;29.80;;;15.30;;
42590;SDS011;28218;53.342;-6.216;2022-12-18T00:18:54;33.10;;;15.50;;
42590;SDS011;28218;53.342;-6.216;2022-12-18T00:21:23;29.15;;;15.15;;
42590;SDS011;28218;53.342;-6.216;2022-12-18T00:23:51;28.25;;;16.85;;
42590;SDS011;28218;53.342;-6.216;2022-12-18T00:26:21;29.05;;;16.38;;
42590;SDS011;28218;53.342;-6.216;2022-12-18T00:28:57;32.75;;;16.25;;
42590;SDS011;28218;53.342;-6.216;2022-12-18T00:31:27;24.10;;;15.07;;
42590;SDS011;28218;53.342;-6.216;2022-12-18T00:33:55;27.00;;;15.30;;
42590;SDS011;28218;53.342;-6.216;2022-12-18T00:36:24;29.50;;;14.82;;
42590;SDS011;28218;53.342;-6.216;2022-12-18T00:38:54;28.63;;;14.63;;
42590;SDS011;28218;53.342;-6.216;2022-12-18T00:41:24;32.58;;;15.95;;
42590;SDS011;28218;53.342;-6.216;2022-12-18T00:44:13;33.28;;;15.23;;
42590;SDS011;28218;53.342;-6.216;2022-12-18T00:46:43;25.48;;;14.15;;
42590;SDS011;28218;53.342;-6.216;2022-12-18T00:49:12;27.15;;;13.60;;
42590;SDS011;28218;53.342;-6.216;2022-12-18T00:51:40;21.77;;;11.68;;
42590;SDS011;28218;53.342;-6.216;2022-12-18T00:54:10;18.48;;;10.77;;
42590;SDS011;28218;53.342;-6.216;2022-12-18T00:56:38;20.85;;;10.70;;
42590;SDS011;28218;53.342;-6.216;2022-12-18T00:59:16;21.83;;;8.63;;
42590;SDS011;28218;53.342;-6.216;2022-12-18T01:01:45;13.70;;;8.63;;
42590;SDS011;28218;53.342;-6.216;2022-12-18T01:04:14;13.50;;;7.78;;
42590;SDS011;28218;53.342;-6.216;2022-12-18T01:06:43;17.50;;;8.52;;
42590;SDS011;28218;53.342;-6.216;2022-12-18T01:09:11;12.88;;;7.80;;
42590;SDS011;28218;53.342;-6.216;2022-12-18T01:11:39;11.63;;;7.13;;
42590;SDS011;28218;53.342;-6.216;2022-12-18T01:14:07;12.43;;;7.38;;
42590;SDS011;28218;53.342;-6.216;2022-12-18T01:16:37;9.88;;;6.90;;
42590;SDS011;28218;53.342;-6.216;2022-12-18T01:19:06;12.75;;;6.90;;
42590;SDS011;28218;53.342;-6.216;2022-12-18T01:21:34;12.85;;;6.68;;
42590;SDS011;28218;53.342;-6.216;2022-12-18T01:24:03;10.00;;;6.22;;
42590;SDS011;28218;53.342;-6.216;2022-12-18T01:26:32;12.02;;;5.88;;
42590;SDS011;28218;53.342;-6.216;2022-12-18T01:29:00;10.80;;;6.22;;
42590;SDS011;28218;53.342;-6.216;2022-12-18T01:31:29;11.38;;;5.43;;
42590;SDS011;28218;53.342;-6.216;2022-12-18T01:34:01;9.93;;;4.73;;
42590;SDS011;28218;53.342;-6.216;2022-12-18T01:39:00;9.07;;;5.18;;
42590;SDS011;28218;53.342;-6.216;2022-12-18T01:41:30;7.93;;;4.57;;
42590;SDS011;28218;53.342;-6.216;2022-12-18T01:47:14;10.23;;;4.55;;
42590;SDS011;28218;53.342;-6.216;2022-12-18T01:52:15;6.80;;;3.78;;
42590;SDS011;28218;53.342;-6.216;2022-12-18T01:54:44;12.63;;;6.10;;
42590;SDS011;28218;53.342;-6.216;2022-12-18T01:57:14;12.82;;;4.65;;
42590;SDS011;28218;53.342;-6.216;2022-12-18T01:59:42;8.63;;;3.83;;
42590;SDS011;28218;53.342;-6.216;2022-12-18T02:02:17;10.95;;;3.13;;
42590;SDS011;28218;53.342;-6.216;2022-12-18T02:04:47;9.07;;;3.63;;
42590;SDS011;28218;53.342;-6.216;2022-12-18T02:07:17;13.52;;;4.57;;
42590;SDS011;28218;53.342;-6.216;2022-12-18T02:09:55;15.80;;;4.18;;
42590;SDS011;28218;53.342;-6.216;2022-12-18T02:12:27;9.35;;;3.58;;
42590;SDS011;28218;53.342;-6.216;2022-12-18T02:15:03;8.25;;;3.17;;
42590;SDS011;28218;53.342;-6.216;2022-12-18T02:17:39;11.45;;;2.22;;
42590;SDS011;28218;53.342;-6.216;2022-12-18T02:20:13;11.23;;;2.05;;
42590;SDS011;28218;53.342;-6.216;2022-12-18T02:22:49;7.40;;;1.80;;
42590;SDS011;28218;53.342;-6.216;2022-12-18T02:25:32;6.57;;;1.42;;
42590;SDS011;28218;53.342;-6.216;2022-12-18T02:28:15;11.38;;;2.10;;
42590;SDS011;28218;53.342;-6.216;2022-12-18T02:30:47;5.68;;;1.42;;
42590;SDS011;28218;53.342;-6.216;2022-12-18T02:35:48;12.38;;;2.33;;
42590;SDS011;28218;53.342;-6.216;2022-12-18T02:38:19;15.15;;;2.15;;
42590;SDS011;28218;53.342;-6.216;2022-12-18T02:40:47;17.13;;;2.85;;
42590;SDS011;28218;53.342;-6.216;2022-12-18T02:43:19;8.75;;;1.80;;
42590;SDS011;28218;53.342;-6.216;2022-12-18T02:45:47;11.85;;;2.45;;
42590;SDS011;28218;53.342;-6.216;2022-12-18T02:48:17;18.83;;;2.57;;
42590;SDS011;28218;53.342;-6.216;2022-12-18T02:50:51;15.30;;;2.88;;
42590;SDS011;28218;53.342;-6.216;2022-12-18T02:53:28;15.13;;;2.95;;
42590;SDS011;28218;53.342;-6.216;2022-12-18T02:56:03;12.98;;;3.35;;
42590;SDS011;28218;53.342;-6.216;2022-12-18T02:58:37;20.23;;;3.85;;
42590;SDS011;28218;53.342;-6.216;2022-12-18T03:01:15;15.05;;;2.22;;
42590;SDS011;28218;53.342;-6.216;2022-12-18T03:03:47;22.00;;;3.30;;
42590;SDS011;28218;53.342;-6.216;2022-12-18T03:06:24;12.23;;;3.38;;
42590;SDS011;28218;53.342;-6.216;2022-12-18T03:08:56;14.60;;;2.92;;
42590;SDS011;28218;53.342;-6.216;2022-12-18T03:11:30;13.10;;;2.42;;
42590;SDS011;28218;53.342;-6.216;2022-12-18T03:14:19;16.60;;;3.17;;
42590;SDS011;28218;53.342;-6.216;2022-12-18T03:16:49;14.15;;;4.18;;
42590;SDS011;28218;53.342;-6.216;2022-12-18T03:19:22;14.85;;;3.70;;
42590;SDS011;28218;53.342;-6.216;2022-12-18T03:21:54;20.00;;;3.20;;
42590;SDS011;28218;53.342;-6.216;2022-12-18T03:24:25;19.17;;;2.65;;
42590;SDS011;28218;53.342;-6.216;2022-12-18T03:26:57;14.73;;;3.60;;
42590;SDS011;28218;53.342;-6.216;2022-12-18T03:29:31;18.23;;;3.17;;
42590;SDS011;28218;53.342;-6.216;2022-12-18T03:32:04;10.18;;;3.15;;
42590;SDS011;28218;53.342;-6.216;2022-12-18T03:34:35;10.82;;;3.22;;
42590;SDS011;28218;53.342;-6.216;2022-12-18T03:37:07;13.55;;;3.90;;
42590;SDS011;28218;53.342;-6.216;2022-12-18T03:39:36;13.25;;;3.55;;
42590;SDS011;28218;53.342;-6.216;2022-12-18T03:42:05;19.45;;;3.40;;
42590;SDS011;28218;53.342;-6.216;2022-12-18T03:44:40;20.52;;;5.85;;
42590;SDS011;28218;53.342;-6.216;2022-12-18T03:47:13;33.45;;;5.55;;
42590;SDS011;28218;53.342;-6.216;2022-12-18T03:49:45;9.43;;;3.85;;
42590;SDS011;28218;53.342;-6.216;2022-12-18T03:52:20;12.25;;;4.35;;
42590;SDS011;28218;53.342;-6.216;2022-12-18T03:54:54;16.83;;;5.28;;
42590;SDS011;28218;53.342;-6.216;2022-12-18T03:57:25;15.57;;;5.50;;
42590;SDS011;28218;53.342;-6.216;2022-12-18T04:00:00;21.83;;;5.65;;
42590;SDS011;28218;53.342;-6.216;2022-12-18T04:02:32;12.60;;;5.00;;
42590;SDS011;28218;53.342;-6.216;2022-12-18T04:05:03;23.20;;;8.10;;
42590;SDS011;28218;53.342;-6.216;2022-12-18T04:07:35;20.40;;;5.75;;
42590;SDS011;28218;53.342;-6.216;2022-12-18T04:10:04;21.83;;;6.55;;
42590;SDS011;28218;53.342;-6.216;2022-12-18T04:12:36;22.60;;;6.63;;
42590;SDS011;28218;53.342;-6.216;2022-12-18T04:15:07;17.63;;;6.15;;
42590;SDS011;28218;53.342;-6.216;2022-12-18T04:17:36;20.70;;;6.75;;
42590;SDS011;28218;53.342;-6.216;2022-12-18T04:20:05;30.05;;;7.07;;
42590;SDS011;28218;53.342;-6.216;2022-12-18T04:22:33;22.20;;;6.68;;
42590;SDS011;28218;53.342;-6.216;2022-12-18T04:25:01;21.83;;;8.35;;
42590;SDS011;28218;53.342;-6.216;2022-12-18T04:27:30;25.67;;;6.65;;
42590;SDS011;28218;53.342;-6.216;2022-12-18T04:29:58;22.02;;;8.13;;
42590;SDS011;28218;53.342;-6.216;2022-12-18T04:32:28;19.55;;;7.20;;
42590;SDS011;28218;53.342;-6.216;2022-12-18T04:34:57;24.83;;;8.48;;
42590;SDS011;28218;53.342;-6.216;2022-12-18T04:37:25;25.75;;;7.63;;
42590;SDS011;28218;53.342;-6.216;2022-12-18T04:39:53;28.42;;;8.27;;
42590;SDS011;28218;53.342;-6.216;2022-12-18T04:42:21;26.27;;;9.40;;
42590;SDS011;28218;53.342;-6.216;2022-12-18T04:44:50;14.70;;;6.70;;
42590;SDS011;28218;53.342;-6.216;2022-12-18T04:47:18;23.52;;;7.97;;
42590;SDS011;28218;53.342;-6.216;2022-12-18T04:49:47;31.52;;;8.70;;
42590;SDS011;28218;53.342;-6.216;2022-12-18T04:52:16;26.63;;;8.00;;
42590;SDS011;28218;53.342;-6.216;2022-12-18T04:54:44;23.23;;;7.57;;
42590;SDS011;28218;53.342;-6.216;2022-12-18T04:57:12;19.88;;;7.00;;
42590;SDS011;28218;53.342;-6.216;2022-12-18T04:59:40;24.73;;;7.45;;
42590;SDS011;28218;53.342;-6.216;2022-12-18T05:02:08;32.55;;;7.97;;
42590;SDS011;28218;53.342;-6.216;2022-12-18T05:04:37;22.73;;;7.10;;
42590;SDS011;28218;53.342;-6.216;2022-12-18T05:07:06;25.02;;;7.22;;
42590;SDS011;28218;53.342;-6.216;2022-12-18T05:09:34;25.75;;;8.48;;
42590;SDS011;28218;53.342;-6.216;2022-12-18T05:12:03;33.15;;;10.45;;
42590;SDS011;28218;53.342;-6.216;2022-12-18T05:14:31;30.25;;;7.28;;
42590;SDS011;28218;53.342;-6.216;2022-12-18T05:16:59;24.17;;;7.45;;
42590;SDS011;28218;53.342;-6.216;2022-12-18T05:19:27;29.30;;;7.45;;
42590;SDS011;28218;53.342;-6.216;2022-12-18T05:21:55;32.90;;;7.40;;
42590;SDS011;28218;53.342;-6.216;2022-12-18T05:24:25;23.75;;;7.40;;
42590;SDS011;28218;53.342;-6.216;2022-12-18T05:26:53;25.20;;;7.30;;
42590;SDS011;28218;53.342;-6.216;2022-12-18T05:29:21;25.77;;;7.38;;
42590;SDS011;28218;53.342;-6.216;2022-12-18T05:31:49;21.83;;;7.40;;
42590;SDS011;28218;53.342;-6.216;2022-12-18T05:34:18;22.00;;;7.88;;
42590;SDS011;28218;53.342;-6.216;2022-12-18T05:36:46;35.17;;;9.43;;
42590;SDS011;28218;53.342;-6.216;2022-12-18T05:39:14;22.95;;;6.38;;
42590;SDS011;28218;53.342;-6.216;2022-12-18T05:41:43;27.88;;;7.75;;
42590;SDS011;28218;53.342;-6.216;2022-12-18T05:44:12;36.45;;;9.18;;
42590;SDS011;28218;53.342;-6.216;2022-12-18T05:46:40;21.05;;;6.55;;
42590;SDS011;28218;53.342;-6.216;2022-12-18T05:49:08;25.83;;;7.72;;
42590;SDS011;28218;53.342;-6.216;2022-12-18T05:51:36;32.58;;;6.07;;
42590;SDS011;28218;53.342;-6.216;2022-12-18T05:54:05;25.17;;;7.03;;
42590;SDS011;28218;53.342;-6.216;2022-12-18T05:56:34;21.23;;;6.35;;
42590;SDS011;28218;53.342;-6.216;2022-12-18T05:59:03;20.67;;;5.70;;
42590;SDS011;28218;53.342;-6.216;2022-12-18T06:01:31;24.65;;;6.00;;
42590;SDS011;28218;53.342;-6.216;2022-12-18T06:03:59;24.98;;;6.30;;
42590;SDS011;28218;53.342;-6.216;2022-12-18T06:06:28;22.50;;;6.05;;
42590;SDS011;28218;53.342;-6.216;2022-12-18T06:08:57;29.42;;;6.72;;
42590;SDS011;28218;53.342;-6.216;2022-12-18T06:11:26;27.13;;;7.55;;
42590;SDS011;28218;53.342;-6.216;2022-12-18T06:13:55;25.70;;;6.78;;
42590;SDS011;28218;53.342;-6.216;2022-12-18T06:16:27;23.55;;;6.55;;
42590;SDS011;28218;53.342;-6.216;2022-12-18T06:18:56;24.27;;;5.93;;
42590;SDS011;28218;53.342;-6.216;2022-12-18T06:21:25;21.73;;;6.95;;
42590;SDS011;28218;53.342;-6.216;2022-12-18T06:23:54;19.65;;;7.03;;
42590;SDS011;28218;53.342;-6.216;2022-12-18T06:26:22;23.63;;;7.82;;
42590;SDS011;28218;53.342;-6.216;2022-12-18T06:28:54;25.60;;;7.28;;
42590;SDS011;28218;53.342;-6.216;2022-12-18T06:31:22;24.55;;;6.45;;
42590;SDS011;28218;53.342;-6.216;2022-12-18T06:33:52;23.38;;;5.18;;
42590;SDS011;28218;53.342;-6.216;2022-12-18T06:36:20;19.95;;;5.72;;
42590;SDS011;28218;53.342;-6.216;2022-12-18T06:38:48;24.45;;;5.15;;
42590;SDS011;28218;53.342;-6.216;2022-12-18T06:41:17;17.83;;;5.00;;
42590;SDS011;28218;53.342;-6.216;2022-12-18T06:43:48;23.63;;;6.00;;
42590;SDS011;28218;53.342;-6.216;2022-12-18T06:46:18;29.05;;;4.40;;
42590;SDS011;28218;53.342;-6.216;2022-12-18T06:48:47;14.45;;;4.03;;
42590;SDS011;28218;53.342;-6.216;2022-12-18T06:51:19;22.45;;;4.60;;
42590;SDS011;28218;53.342;-6.216;2022-12-18T06:53:48;17.90;;;4.05;;
42590;SDS011;28218;53.342;-6.216;2022-12-18T06:56:16;17.08;;;4.50;;
42590;SDS011;28218;53.342;-6.216;2022-12-18T06:58:45;14.02;;;5.32;;
42590;SDS011;28218;53.342;-6.216;2022-12-18T07:01:13;10.55;;;3.50;;
42590;SDS011;28218;53.342;-6.216;2022-12-18T07:03:41;13.68;;;3.90;;
42590;SDS011;28218;53.342;-6.216;2022-12-18T07:06:14;7.82;;;3.30;;
42590;SDS011;28218;53.342;-6.216;2022-12-18T07:08:45;17.52;;;3.75;;
42590;SDS011;28218;53.342;-6.216;2022-12-18T07:11:14;12.40;;;3.45;;
42590;SDS011;28218;53.342;-6.216;2022-12-18T07:13:43;15.68;;;3.63;;
42590;SDS011;28218;53.342;-6.216;2022-12-18T07:16:13;15.38;;;3.53;;
42590;SDS011;28218;53.342;-6.216;2022-12-18T07:18:50;14.02;;;4.13;;
42590;SDS011;28218;53.342;-6.216;2022-12-18T07:21:18;12.02;;;3.15;;
42590;SDS011;28218;53.342;-6.216;2022-12-18T07:23:48;10.70;;;3.00;;
42590;SDS011;28218;53.342;-6.216;2022-12-18T07:26:18;13.02;;;4.00;;
42590;SDS011;28218;53.342;-6.216;2022-12-18T07:28:47;20.90;;;3.58;;
42590;SDS011;28218;53.342;-6.216;2022-12-18T07:31:16;16.80;;;3.92;;
42590;SDS011;28218;53.342;-6.216;2022-12-18T07:33:47;21.75;;;5.03;;
42590;SDS011;28218;53.342;-6.216;2022-12-18T07:36:16;25.98;;;4.57;;
42590;SDS011;28218;53.342;-6.216;2022-12-18T07:38:46;16.30;;;5.15;;
42590;SDS011;28218;53.342;-6.216;2022-12-18T07:41:16;16.75;;;5.85;;
42590;SDS011;28218;53.342;-6.216;2022-12-18T07:43:45;15.73;;;5.78;;
42590;SDS011;28218;53.342;-6.216;2022-12-18T07:46:14;19.67;;;5.57;;
42590;SDS011;28218;53.342;-6.216;2022-12-18T07:48:43;18.38;;;5.53;;
42590;SDS011;28218;53.342;-6.216;2022-12-18T07:51:15;16.02;;;5.25;;
42590;SDS011;28218;53.342;-6.216;2022-12-18T07:53:45;21.13;;;5.85;;
42590;SDS011;28218;53.342;-6.216;2022-12-18T07:56:19;16.95;;;5.00;;
42590;SDS011;28218;53.342;-6.216;2022-12-18T07:58:54;23.63;;;5.38;;
42590;SDS011;28218;53.342;-6.216;2022-12-18T08:01:22;17.10;;;5.43;;
42590;SDS011;28218;53.342;-6.216;2022-12-18T08:03:51;24.02;;;5.32;;
42590;SDS011;28218;53.342;-6.216;2022-12-18T08:06:19;26.42;;;5.63;;
42590;SDS011;28218;53.342;-6.216;2022-12-18T08:08:50;16.25;;;5.80;;
42590;SDS011;28218;53.342;-6.216;2022-12-18T08:11:20;23.88;;;6.30;;
42590;SDS011;28218;53.342;-6.216;2022-12-18T08:13:49;14.75;;;5.82;;
42590;SDS011;28218;53.342;-6.216;2022-12-18T08:16:18;26.00;;;6.55;;
42590;SDS011;28218;53.342;-6.216;2022-12-18T08:18:47;16.42;;;7.28;;
42590;SDS011;28218;53.342;-6.216;2022-12-18T08:21:16;17.55;;;6.18;;
42590;SDS011;28218;53.342;-6.216;2022-12-18T08:23:49;23.75;;;6.18;;
42590;SDS011;28218;53.342;-6.216;2022-12-18T08:26:20;24.13;;;6.50;;
42590;SDS011;28218;53.342;-6.216;2022-12-18T08:28:49;24.10;;;5.60;;
42590;SDS011;28218;53.342;-6.216;2022-12-18T08:31:17;25.10;;;6.32;;
42590;SDS011;28218;53.342;-6.216;2022-12-18T08:33:47;21.23;;;6.88;;
42590;SDS011;28218;53.342;-6.216;2022-12-18T08:36:16;24.95;;;8.50;;
42590;SDS011;28218;53.342;-6.216;2022-12-18T08:38:45;31.48;;;8.15;;
42590;SDS011;28218;53.342;-6.216;2022-12-18T08:41:13;28.40;;;7.60;;
42590;SDS011;28218;53.342;-6.216;2022-12-18T08:43:44;21.33;;;6.57;;
42590;SDS011;28218;53.342;-6.216;2022-12-18T08:46:34;28.27;;;8.40;;
42590;SDS011;28218;53.342;-6.216;2022-12-18T08:49:03;33.83;;;8.85;;
42590;SDS011;28218;53.342;-6.216;2022-12-18T08:51:32;26.42;;;7.00;;
42590;SDS011;28218;53.342;-6.216;2022-12-18T08:54:01;22.48;;;7.90;;
42590;SDS011;28218;53.342;-6.216;2022-12-18T08:56:32;28.23;;;8.23;;
42590;SDS011;28218;53.342;-6.216;2022-12-18T08:59:02;25.90;;;7.50;;
42590;SDS011;28218;53.342;-6.216;2022-12-18T09:01:30;37.72;;;9.82;;
42590;SDS011;28218;53.342;-6.216;2022-12-18T09:04:00;20.52;;;9.55;;
42590;SDS011;28218;53.342;-6.216;2022-12-18T09:06:29;30.33;;;7.80;;
42590;SDS011;28218;53.342;-6.216;2022-12-18T09:08:58;23.23;;;9.25;;
42590;SDS011;28218;53.342;-6.216;2022-12-18T09:11:27;27.50;;;8.55;;
42590;SDS011;28218;53.342;-6.216;2022-12-18T09:13:56;24.75;;;8.65;;
42590;SDS011;28218;53.342;-6.216;2022-12-18T09:16:27;28.80;;;7.70;;
42590;SDS011;28218;53.342;-6.216;2022-12-18T09:18:58;33.00;;;8.60;;
42590;SDS011;28218;53.342;-6.216;2022-12-18T09:21:27;28.83;;;9.35;;
42590;SDS011;28218;53.342;-6.216;2022-12-18T09:24:02;23.42;;;7.97;;
42590;SDS011;28218;53.342;-6.216;2022-12-18T09:26:34;30.27;;;9.68;;
42590;SDS011;28218;53.342;-6.216;2022-12-18T09:29:03;17.33;;;6.85;;
42590;SDS011;28218;53.342;-6.216;2022-12-18T09:31:35;22.85;;;7.47;;
42590;SDS011;28218;53.342;-6.216;2022-12-18T09:34:04;31.63;;;9.13;;
42590;SDS011;28218;53.342;-6.216;2022-12-18T09:36:32;25.77;;;8.48;;
42590;SDS011;28218;53.342;-6.216;2022-12-18T09:39:00;25.88;;;8.73;;
42590;SDS011;28218;53.342;-6.216;2022-12-18T09:41:44;24.70;;;8.32;;
42590;SDS011;28218;53.342;-6.216;2022-12-18T09:44:16;24.55;;;7.97;;
42590;SDS011;28218;53.342;-6.216;2022-12-18T09:46:54;25.45;;;7.65;;
42590;SDS011;28218;53.342;-6.216;2022-12-18T09:49:31;30.17;;;7.47;;
42590;SDS011;28218;53.342;-6.216;2022-12-18T09:52:07;26.25;;;6.88;;
42590;SDS011;28218;53.342;-6.216;2022-12-18T09:54:39;21.05;;;7.07;;
42590;SDS011;28218;53.342;-6.216;2022-12-18T09:57:12;25.77;;;7.15;;
42590;SDS011;28218;53.342;-6.216;2022-12-18T09:59:43;28.75;;;9.02;;
42590;SDS011;28218;53.342;-6.216;2022-12-18T10:02:19;25.35;;;7.72;;
42590;SDS011;28218;53.342;-6.216;2022-12-18T10:04:53;15.50;;;6.05;;
42590;SDS011;28218;53.342;-6.216;2022-12-18T10:07:37;27.48;;;7.25;;
42590;SDS011;28218;53.342;-6.216;2022-12-18T10:10:14;21.63;;;6.70;;
42590;SDS011;28218;53.342;-6.216;2022-12-18T10:12:52;20.92;;;8.15;;
42590;SDS011;28218;53.342;-6.216;2022-12-18T10:15:31;30.10;;;7.97;;
42590;SDS011;28218;53.342;-6.216;2022-12-18T10:18:17;31.23;;;10.15;;
42590;SDS011;28218;53.342;-6.216;2022-12-18T10:20:58;24.15;;;6.70;;
42590;SDS011;28218;53.342;-6.216;2022-12-18T10:23:33;29.35;;;7.60;;
42590;SDS011;28218;53.342;-6.216;2022-12-18T10:26:13;18.58;;;6.80;;
42590;SDS011;28218;53.342;-6.216;2022-12-18T10:28:42;30.33;;;9.90;;
42590;SDS011;28218;53.342;-6.216;2022-12-18T10:31:12;21.02;;;7.28;;
42590;SDS011;28218;53.342;-6.216;2022-12-18T10:33:45;20.42;;;6.57;;
42590;SDS011;28218;53.342;-6.216;2022-12-18T10:36:14;24.08;;;8.60;;
42590;SDS011;28218;53.342;-6.216;2022-12-18T10:38:42;22.60;;;7.40;;
42590;SDS011;28218;53.342;-6.216;2022-12-18T10:41:22;30.08;;;8.68;;
42590;SDS011;28218;53.342;-6.216;2022-12-18T10:46:48;20.45;;;7.85;;
42590;SDS011;28218;53.342;-6.216;2022-12-18T10:49:21;13.80;;;6.70;;
42590;SDS011;28218;53.342;-6.216;2022-12-18T10:51:51;22.30;;;7.70;;
42590;SDS011;28218;53.342;-6.216;2022-12-18T10:54:32;25.55;;;8.32;;
42590;SDS011;28218;53.342;-6.216;2022-12-18T10:57:15;19.40;;;6.93;;
42590;SDS011;28218;53.342;-6.216;2022-12-18T10:59:52;24.25;;;7.30;;
42590;SDS011;28218;53.342;-6.216;2022-12-18T11:02:25;23.05;;;7.38;;
42590;SDS011;28218;53.342;-6.216;2022-12-18T11:04:57;21.67;;;7.35;;
42590;SDS011;28218;53.342;-6.216;2022-12-18T11:07:25;21.08;;;7.57;;
42590;SDS011;28218;53.342;-6.216;2022-12-18T11:10:15;28.63;;;9.63;;
42590;SDS011;28218;53.342;-6.216;2022-12-18T11:12:45;24.33;;;7.78;;
42590;SDS011;28218;53.342;-6.216;2022-12-18T11:15:15;23.63;;;8.25;;
42590;SDS011;28218;53.342;-6.216;2022-12-18T11:17:47;24.45;;;8.15;;
42590;SDS011;28218;53.342;-6.216;2022-12-18T11:20:23;30.23;;;7.38;;
42590;SDS011;28218;53.342;-6.216;2022-12-18T11:22:59;30.05;;;8.48;;
42590;SDS011;28218;53.342;-6.216;2022-12-18T11:25:30;32.50;;;9.52;;
42590;SDS011;28218;53.342;-6.216;2022-12-18T11:30:31;20.58;;;7.18;;
42590;SDS011;28218;53.342;-6.216;2022-12-18T11:33:03;18.70;;;6.82;;
42590;SDS011;28218;53.342;-6.216;2022-12-18T11:38:21;21.92;;;6.38;;
42590;SDS011;28218;53.342;-6.216;2022-12-18T11:40:53;17.92;;;6.70;;
42590;SDS011;28218;53.342;-6.216;2022-12-18T11:43:27;24.60;;;6.45;;
42590;SDS011;28218;53.342;-6.216;2022-12-18T11:46:00;27.55;;;6.55;;
42590;SDS011;28218;53.342;-6.216;2022-12-18T11:48:32;24.63;;;6.45;;
42590;SDS011;28218;53.342;-6.216;2022-12-18T11:51:11;17.30;;;5.40;;
42590;SDS011;28218;53.342;-6.216;2022-12-18T11:53:52;16.83;;;6.75;;
42590;SDS011;28218;53.342;-6.216;2022-12-18T11:56:26;23.27;;;5.15;;
42590;SDS011;28218;53.342;-6.216;2022-12-18T11:59:02;19.17;;;5.60;;
42590;SDS011;28218;53.342;-6.216;2022-12-18T12:01:42;15.90;;;3.92;;
42590;SDS011;28218;53.342;-6.216;2022-12-18T12:07:15;430.90;;;148.48;;
42590;SDS011;28218;53.342;-6.216;2022-12-18T12:09:56;486.50;;;153.43;;
42590;SDS011;28218;53.342;-6.216;2022-12-18T12:12:35;527.80;;;175.93;;
42590;SDS011;28218;53.342;-6.216;2022-12-18T12:15:22;211.48;;;69.03;;
42590;SDS011;28218;53.342;-6.216;2022-12-18T12:18:00;45.22;;;13.18;;
42590;SDS011;28218;53.342;-6.216;2022-12-18T12:20:42;18.92;;;4.85;;
42590;SDS011;28218;53.342;-6.216;2022-12-18T12:23:22;10.50;;;3.47;;
42590;SDS011;28218;53.342;-6.216;2022-12-18T12:26:01;20.80;;;4.50;;
42590;SDS011;28218;53.342;-6.216;2022-12-18T12:28:44;16.98;;;3.78;;
42590;SDS011;28218;53.342;-6.216;2022-12-18T12:31:35;14.57;;;2.83;;
42590;SDS011;28218;53.342;-6.216;2022-12-18T12:34:16;15.68;;;4.30;;
42590;SDS011;28218;53.342;-6.216;2022-12-18T12:36:52;15.40;;;3.42;;
42590;SDS011;28218;53.342;-6.216;2022-12-18T12:39:34;10.05;;;2.08;;
42590;SDS011;28218;53.342;-6.216;2022-12-18T12:42:05;12.75;;;1.98;;
42590;SDS011;28218;53.342;-6.216;2022-12-18T12:44:57;19.23;;;3.47;;
42590;SDS011;28218;53.342;-6.216;2022-12-18T12:47:30;17.15;;;6.38;;
42590;SDS011;28218;53.342;-6.216;2022-12-18T12:50:02;12.43;;;3.10;;
42590;SDS011;28218;53.342;-6.216;2022-12-18T12:52:35;15.70;;;3.05;;
42590;SDS011;28218;53.342;-6.216;2022-12-18T12:55:12;12.57;;;3.03;;
42590;SDS011;28218;53.342;-6.216;2022-12-18T12:57:48;12.95;;;2.03;;
42590;SDS011;28218;53.342;-6.216;2022-12-18T13:00:25;9.55;;;2.63;;
42590;SDS011;28218;53.342;-6.216;2022-12-18T13:02:59;11.45;;;2.85;;
42590;SDS011;28218;53.342;-6.216;2022-12-18T13:10:52;10.32;;;2.30;;
42590;SDS011;28218;53.342;-6.216;2022-12-18T13:13:49;8.07;;;2.70;;
42590;SDS011;28218;53.342;-6.216;2022-12-18T13:16:18;8.05;;;2.15;;
42590;SDS011;28218;53.342;-6.216;2022-12-18T13:18:48;6.53;;;1.63;;
42590;SDS011;28218;53.342;-6.216;2022-12-18T13:21:20;9.83;;;1.97;;
42590;SDS011;28218;53.342;-6.216;2022-12-18T13:23:51;6.90;;;2.28;;
42590;SDS011;28218;53.342;-6.216;2022-12-18T13:26:30;8.10;;;2.35;;
42590;SDS011;28218;53.342;-6.216;2022-12-18T13:29:00;16.08;;;2.78;;
42590;SDS011;28218;53.342;-6.216;2022-12-18T13:34:35;9.60;;;2.00;;
42590;SDS011;28218;53.342;-6.216;2022-12-18T13:43:26;8.05;;;1.92;;
42590;SDS011;28218;53.342;-6.216;2022-12-18T13:48:52;12.75;;;3.08;;
42590;SDS011;28218;53.342;-6.216;2022-12-18T13:51:23;14.45;;;3.53;;
42590;SDS011;28218;53.342;-6.216;2022-12-18T13:53:53;6.30;;;2.17;;
42590;SDS011;28218;53.342;-6.216;2022-12-18T13:56:25;5.90;;;2.08;;
42590;SDS011;28218;53.342;-6.216;2022-12-18T13:59:13;11.63;;;1.70;;
42590;SDS011;28218;53.342;-6.216;2022-12-18T14:01:49;3.95;;;1.27;;
42590;SDS011;28218;53.342;-6.216;2022-12-18T14:04:22;6.90;;;1.33;;
42590;SDS011;28218;53.342;-6.216;2022-12-18T14:06:53;5.15;;;1.40;;
42590;SDS011;28218;53.342;-6.216;2022-12-18T14:09:26;8.27;;;1.42;;
42590;SDS011;28218;53.342;-6.216;2022-12-18T14:11:57;5.55;;;1.30;;
42590;SDS011;28218;53.342;-6.216;2022-12-18T14:14:46;7.60;;;1.52;;
42590;SDS011;28218;53.342;-6.216;2022-12-18T14:17:20;5.90;;;1.83;;
42590;SDS011;28218;53.342;-6.216;2022-12-18T14:19:50;6.43;;;1.80;;
42590;SDS011;28218;53.342;-6.216;2022-12-18T14:22:20;8.40;;;2.42;;
42590;SDS011;28218;53.342;-6.216;2022-12-18T14:27:45;7.43;;;1.48;;
42590;SDS011;28218;53.342;-6.216;2022-12-18T14:30:27;5.47;;;1.60;;
42590;SDS011;28218;53.342;-6.216;2022-12-18T14:35:29;14.50;;;2.53;;
42590;SDS011;28218;53.342;-6.216;2022-12-18T14:38:10;11.23;;;2.17;;
42590;SDS011;28218;53.342;-6.216;2022-12-18T14:40:45;13.60;;;2.58;;
42590;SDS011;28218;53.342;-6.216;2022-12-18T14:43:13;13.07;;;2.28;;
42590;SDS011;28218;53.342;-6.216;2022-12-18T14:45:43;9.52;;;2.15;;
42590;SDS011;28218;53.342;-6.216;2022-12-18T14:48:14;14.80;;;2.80;;
42590;SDS011;28218;53.342;-6.216;2022-12-18T14:50:56;12.70;;;3.42;;
42590;SDS011;28218;53.342;-6.216;2022-12-18T14:53:31;19.23;;;4.80;;
42590;SDS011;28218;53.342;-6.216;2022-12-18T14:56:01;13.85;;;5.18;;
42590;SDS011;28218;53.342;-6.216;2022-12-18T14:58:30;16.23;;;2.35;;
42590;SDS011;28218;53.342;-6.216;2022-12-18T15:01:00;5.65;;;2.00;;
42590;SDS011;28218;53.342;-6.216;2022-12-18T15:03:28;6.65;;;1.25;;
42590;SDS011;28218;53.342;-6.216;2022-12-18T15:05:56;7.72;;;1.92;;
42590;SDS011;28218;53.342;-6.216;2022-12-18T15:08:43;13.85;;;2.40;;
42590;SDS011;28218;53.342;-6.216;2022-12-18T15:11:27;6.53;;;2.00;;
42590;SDS011;28218;53.342;-6.216;2022-12-18T15:13:59;15.48;;;2.00;;
42590;SDS011;28218;53.342;-6.216;2022-12-18T15:16:29;16.75;;;2.75;;
42590;SDS011;28218;53.342;-6.216;2022-12-18T15:18:57;12.65;;;2.80;;
42590;SDS011;28218;53.342;-6.216;2022-12-18T15:21:26;19.50;;;2.97;;
42590;SDS011;28218;53.342;-6.216;2022-12-18T15:23:57;9.25;;;2.80;;
42590;SDS011;28218;53.342;-6.216;2022-12-18T15:26:25;12.90;;;2.55;;
42590;SDS011;28218;53.342;-6.216;2022-12-18T15:28:53;10.48;;;2.55;;
42590;SDS011;28218;53.342;-6.216;2022-12-18T15:31:31;8.73;;;2.25;;
42590;SDS011;28218;53.342;-6.216;2022-12-18T15:34:08;12.48;;;1.92;;